createdAt,value
2024-05-09T00:11:04.345Z,97306.31
2024-05-09T00:31:06.221Z,97308.28
2024-05-09T00:51:08.098Z,97298.75
2024-05-09T01:11:10.107Z,97291.09
2024-05-09T01:31:16.368Z,97292.72
2024-05-09T01:51:18.132Z,97287.41
2024-05-09T02:11:19.865Z,97293.78
2024-05-09T02:31:21.598Z,97285.38
2024-05-09T02:51:23.238Z,97287.56
2024-05-09T03:11:25.803Z,97289.88
2024-05-09T03:31:27.810Z,97288.75
2024-05-09T03:51:30.812Z,97295.00
2024-05-09T04:11:32.820Z,97302.44
2024-05-09T04:31:37.923Z,97326.34
2024-05-09T04:51:41.074Z,97325.50
2024-05-09T05:11:42.929Z,97324.84
2024-05-09T05:31:44.944Z,97340.94
2024-05-09T05:51:46.654Z,97337.09
2024-05-09T06:11:48.522Z,97347.72
2024-05-09T06:31:51.038Z,97342.41
2024-05-09T06:51:52.716Z,97343.47
2024-05-09T07:11:54.407Z,97346.25
2024-05-09T07:31:56.569Z,97336.66
2024-05-09T07:53:22.109Z,97337.53
2024-05-09T08:12:21.604Z,97330.66
2024-05-09T08:32:23.505Z,97318.16
2024-05-09T08:52:25.264Z,97325.34
2024-05-09T09:12:26.986Z,97332.06
2024-05-09T09:32:30.275Z,97328.81
2024-05-09T09:52:32.285Z,97325.75
2024-05-09T10:12:34.249Z,97303.94
2024-05-09T10:32:41.008Z,97299.47
2024-05-09T10:52:42.749Z,97286.97
2024-05-09T11:12:46.160Z,97269.41
2024-05-09T11:32:48.255Z,97261.38
2024-05-09T11:52:50.058Z,97246.53
2024-05-09T12:12:51.802Z,97230.03
2024-05-09T12:32:53.784Z,97220.69
2024-05-09T12:52:55.666Z,97208.03
2024-05-09T13:12:57.379Z,97183.88
2024-05-09T13:32:59.254Z,97166.94
2024-05-09T13:53:01.553Z,97142.19
2024-05-09T14:13:03.584Z,97130.19
2024-05-09T14:33:06.699Z,97120.25
2024-05-09T14:53:11.446Z,97107.41
2024-05-09T15:13:16.234Z,97088.22
2024-05-09T15:33:18.779Z,97079.34
2024-05-09T15:53:20.735Z,97062.81
2024-05-09T16:13:22.883Z,97053.88
2024-05-09T16:33:26.207Z,97047.94
2024-05-09T16:53:28.077Z,97044.81
2024-05-09T17:13:30.531Z,97042.59
2024-05-09T17:33:32.463Z,97044.75
2024-05-09T17:53:34.382Z,97042.72
2024-05-09T18:13:36.087Z,97044.84
2024-05-09T18:33:38.158Z,97056.59
2024-05-09T18:53:40.883Z,97054.53
2024-05-09T19:13:43.442Z,97080.34
2024-05-09T19:33:45.252Z,97100.22
2024-05-09T19:53:50.960Z,97099.31
2024-05-09T20:13:52.748Z,97107.69
2024-05-09T20:33:54.461Z,97119.13
2024-05-09T20:53:56.401Z,97108.53
2024-05-09T21:13:58.264Z,97095.66
2024-05-09T21:34:00.131Z,97091.94
2024-05-09T21:54:02.253Z,97098.22
2024-05-09T22:14:03.939Z,97104.81
2024-05-09T22:34:05.802Z,97112.97
2024-05-09T22:54:07.837Z,97106.31
2024-05-09T23:14:09.543Z,97108.88
2024-05-09T23:34:12.245Z,97102.75
2024-05-09T23:54:14.057Z,97091.69
